Startpagina
METAR-TAF:

METAR-TAF

Vliegvelden :

Büchel, Duitsland

breedte: 50-10N, lengte: 007-04E, hoogte: 478 m

Actueel weer

Dit bericht is 1 uur en het 8 minuten geleden gemaakt, om 07:20 UTC
Wind 4 kt uit het zuidzuidoosten
Temperatuur 7°C
Vochtigheid 93%
Druk 1024 hPa
Zicht 10 km of meer
Verspreide wolken op 25000 ft
mist in de omgeving

METAR: ETSB 180720Z 15004KT 9999 VCFG SCT250 07/06 Q1024 BLU+BLU+

Tijdstip: 10:28 (08:28 UTC)

Verwachting

Dit bericht is 1 uur en het 3 minuten geleden gemaakt, om 07:25 UTC
Verwachting geldig van 18 om 08 UTC tot 18 om 17 UTC
Wind 6 kt uit het zuiden
Zicht 10 km of meer
Verspreide wolken op 25000 ft

TAF: ETSB 180725Z 1808/1817 18006KT 9999 NSW SCT250 BY ETGL

Waarnemingen en weersverwachtingen van meer dan 4000 vliegvelden (METAR en TAF).

De beschikbare stations zijn de gele en rode punten op de kaart.

Ga met uw muis naar het station om de naam te zien.

Klik dan om waarnemingen en weersverwachtingen te zien.

kaart wijzigen: klik op de groene knoppen met een zwart kruis om in te zoomen, op de groene knop met een streepje om uit te zoomen of op de groene pijlen voor aangrenzende kaarten.


METAR-TAF: